Terminal Aerodrome Forecast
Issued by NWS

Home | Current Version | Previous Version | Text Only | Print | Product List | Glossary On
Versions: 1 2 3 4 5 6 7 8 9 10 11 12 13 14 15
000
FTPA31 PHFO 161720
TAFHNY
TAF
PHNY 161720Z 1618/1718 06007KT P6SM SCT020
     FM162000 04011KT P6SM SCT025
      TEMPO 1620/1624 BKN025
     FM170000 04014G21KT P6SM FEW025=

USA.gov is the U.S. government's official web portal to all federal, state and local government web resources and services.